This is the latest recevied weather packets stored in our database for station/object JH1LWU-13. If no packets are shown the sender has not sent any weather packets the latest 10 day(s).
| Time | Temp. | Humidity | Pressure | Rain* | Wind** | Luminosity | Snow |
|---|---|---|---|---|---|---|---|
| 1787710518 | 35.56° C | 48% | 1004 hPa | - | - | - | - |
| 1787708717 | 36.11° C | 47% | 1007 hPa | - | - | - | - |
| 1787706916 | 36.11° C | 48% | 1007 hPa | - | - | - | - |
| 1787703314 | 35.56° C | 50% | 1008 hPa | - | - | - | - |
| 1787701513 | 34.44° C | 52% | 1007 hPa | - | - | - | - |
| 1787699712 | 33.33° C | 56% | 1008 hPa | - | - | - | - |
| 1787697911 | 31.67° C | 60% | 1009 hPa | - | - | - | - |
| 1787696110 | 30° C | 64% | 1007 hPa | - | - | - | - |
| 1787694309 | 30° C | 64% | 1008 hPa | - | - | - | - |
| 1787692508 | 28.89° C | 67% | 1007 hPa | - | - | - | - |
| 1787690707 | 28.33° C | 70% | 1006 hPa | - | - | - | - |
| 1787688906 | 28.33° C | 72% | 1007 hPa | - | - | - | - |
| 1787687105 | 27.78° C | 73% | 1005 hPa | - | - | - | - |
| 1787685304 | 27.78° C | 72% | 1006 hPa | - | - | - | - |
| 1787683503 | 28.33° C | 71% | 1006 hPa | - | - | - | - |
| 1787681702 | 27.22° C | 72% | 1007 hPa | - | - | - | - |
| 1787679901 | 28.33° C | 71% | 1007 hPa | - | - | - | - |
| 1787678100 | 28.89° C | 69% | 1007 hPa | - | - | - | - |
| 1787676299 | 28.33° C | 70% | 1007 hPa | - | - | - | - |
| 1787674498 | 28.89° C | 69% | 1006 hPa | - | - | - | - |
| 1787672697 | 28.33° C | 69% | 1006 hPa | - | - | - | - |
| 1787670896 | 29.44° C | 65% | 1007 hPa | - | - | - | - |
| 1787669095 | 29.44° C | 64% | 1007 hPa | - | - | - | - |
| 1787667294 | 30° C | 62% | 1007 hPa | - | - | - | - |
| 1787665493 | 32.78° C | 56% | 1007 hPa | - | - | - | - |
* Rain since midnight (hover to see other rain measurements)
** Current wind speed in m/s (hover to see current wind gust speed)